Time;durP1;ratioP1;P1;durP2;ratioP2;P2;SDS_P1;SDS_P2;PMS_P1;PMS_P2;Temp;Humidity;BMP_temperature;BMP_pressure;BME280_temperature;BME280_humidity;BME280_pressure;Samples;Min_cycle;Max_cycle;Signal;HPM_P1;HPM_P2
2021/08/13 00:00:11;;;;;;;7.60;6.20;;;;;;;17.32;79.10;101970.03;685630;28;1463;-58
2021/08/13 00:00:31;;;;;;;7.25;5.93;;;;;;;17.30;79.28;101964.75;685519;28;1023;-58
2021/08/13 00:00:51;;;;;;;8.20;6.37;;;;;;;17.26;79.43;101967.69;685758;28;928;-58
2021/08/13 00:01:12;;;;;;;8.70;6.50;;;;;;;17.26;79.22;101963.22;685714;28;829;-58
2021/08/13 00:01:32;;;;;;;8.33;6.47;;;;;;;17.18;79.56;101969.88;685579;28;805;-58
2021/08/13 00:01:55;;;;;;;8.20;6.60;;;;;;;17.18;79.54;101967.22;685479;28;1379;-58
2021/08/13 00:02:15;;;;;;;7.53;6.32;;;;;;;17.18;79.49;101965.41;685793;28;816;-57
2021/08/13 00:02:36;;;;;;;7.45;6.50;;;;;;;17.18;79.56;101964.56;685558;28;992;-58
2021/08/13 00:02:56;;;;;;;8.07;6.23;;;;;;;17.19;79.78;101959.13;685319;28;924;-57
2021/08/13 00:03:17;;;;;;;7.83;6.30;;;;;;;17.19;79.73;101960.94;687425;28;1450;-59
2021/08/13 00:03:37;;;;;;;7.80;6.20;;;;;;;17.19;79.49;101963.63;688305;28;832;-57
2021/08/13 00:03:57;;;;;;;8.18;6.30;;;;;;;17.17;79.70;101965.47;688333;28;900;-58
2021/08/13 00:04:18;;;;;;;8.93;6.40;;;;;;;17.16;79.95;101966.44;688401;28;924;-57
2021/08/13 00:04:41;;;;;;;9.00;6.50;;;;;;;17.17;79.79;101968.16;688275;28;889;-58
2021/08/13 00:05:01;;;;;;;8.23;6.60;;;;;;;17.20;79.57;101965.31;688318;28;959;-58
2021/08/13 00:05:22;;;;;;;9.67;6.90;;;;;;;17.21;79.89;101965.25;688261;28;923;-58
2021/08/13 00:05:42;;;;;;;8.33;6.60;;;;;;;17.22;79.60;101964.31;688249;28;951;-58
2021/08/13 00:06:03;;;;;;;8.90;6.40;;;;;;;17.25;79.63;101969.47;686444;28;1386;-58
2021/08/13 00:06:23;;;;;;;7.97;6.10;;;;;;;17.26;79.62;101973.00;685866;28;1404;-61
2021/08/13 00:06:44;;;;;;;7.25;6.15;;;;;;;17.28;79.63;101971.13;688056;28;1918;-58
2021/08/13 00:07:05;;;;;;;8.13;6.50;;;;;;;17.26;79.45;101973.84;688086;28;1503;-58
2021/08/13 00:07:25;;;;;;;9.07;6.43;;;;;;;17.20;79.72;101973.31;688040;28;762;-58
2021/08/13 00:07:45;;;;;;;8.97;6.50;;;;;;;17.16;79.76;101971.75;688078;28;910;-58
2021/08/13 00:08:06;;;;;;;9.03;6.60;;;;;;;17.16;79.84;101971.75;688103;28;978;-58
2021/08/13 00:08:26;;;;;;;8.48;6.55;;;;;;;17.15;79.98;101978.03;688328;28;870;-58
2021/08/13 00:08:47;;;;;;;7.70;6.47;;;;;;;17.17;80.04;101976.13;688296;28;963;-59
2021/08/13 00:09:08;;;;;;;7.78;6.20;;;;;;;17.17;79.64;101978.81;688082;28;1473;-58
2021/08/13 00:09:28;;;;;;;8.40;6.28;;;;;;;17.13;79.90;101977.25;687749;28;1418;-59
2021/08/13 00:09:49;;;;;;;8.85;6.60;;;;;;;17.16;79.70;101977.94;688309;28;899;-58
2021/08/13 00:10:12;;;;;;;8.40;6.50;;;;;;;17.13;79.89;101977.25;688189;28;967;-59
2021/08/13 00:10:35;;;;;;;9.02;6.30;;;;;;;17.11;79.87;101979.13;688034;28;1478;-58
2021/08/13 00:10:55;;;;;;;8.57;6.30;;;;;;;17.06;80.25;101979.34;688285;28;873;-58
2021/08/13 00:11:16;;;;;;;7.70;6.40;;;;;;;17.01;80.11;101984.91;688245;28;999;-59
2021/08/13 00:11:38;;;;;;;8.17;6.63;;;;;;;16.95;80.48;101979.91;688280;28;956;-59
2021/08/13 00:11:58;;;;;;;8.82;6.97;;;;;;;16.96;80.54;101976.28;688210;28;1325;-58
2021/08/13 00:12:18;;;;;;;8.70;6.78;;;;;;;16.99;80.35;101973.47;688211;28;844;-58
2021/08/13 00:12:42;;;;;;;8.83;6.93;;;;;;;17.02;80.39;101973.31;688096;28;1054;-58
2021/08/13 00:13:05;;;;;;;8.68;6.95;;;;;;;17.07;80.04;101973.97;688055;28;964;-58
2021/08/13 00:13:25;;;;;;;8.23;6.45;;;;;;;17.05;80.20;101970.50;688215;28;1078;-58
2021/08/13 00:13:45;;;;;;;8.52;6.60;;;;;;;17.07;80.28;101979.28;688301;28;807;-58
2021/08/13 00:14:07;;;;;;;9.03;7.10;;;;;;;17.05;79.97;101974.97;688314;28;841;-58
2021/08/13 00:14:27;;;;;;;8.98;6.60;;;;;;;17.04;80.28;101970.59;688186;28;1074;-59
2021/08/13 00:14:48;;;;;;;7.83;6.50;;;;;;;17.01;80.27;101968.09;688276;28;995;-58
2021/08/13 00:15:09;;;;;;;9.43;7.40;;;;;;;16.96;80.08;101965.63;688333;28;916;-58
2021/08/13 00:15:30;;;;;;;9.63;7.55;;;;;;;16.96;80.22;101975.44;688257;28;891;-58
2021/08/13 00:15:50;;;;;;;8.70;7.05;;;;;;;16.95;80.33;101977.25;686215;28;1543;-58
2021/08/13 00:16:10;;;;;;;9.03;7.33;;;;;;;16.98;80.18;101973.56;685616;28;900;-58
2021/08/13 00:16:34;;;;;;;9.83;7.33;;;;;;;17.01;80.29;101968.94;685562;28;995;-58
2021/08/13 00:16:54;;;;;;;8.65;6.88;;;;;;;17.04;80.02;101968.78;685860;28;1472;-58
2021/08/13 00:17:14;;;;;;;9.17;6.73;;;;;;;17.05;80.15;101970.50;688256;28;991;-58
2021/08/13 00:17:35;;;;;;;9.10;7.00;;;;;;;17.07;79.86;101973.97;688244;28;1043;-58
2021/08/13 00:18:00;;;;;;;10.50;7.50;;;;;;;17.09;79.88;101972.06;688200;28;872;-57
2021/08/13 00:18:20;;;;;;;8.40;6.60;;;;;;;17.09;80.11;101976.53;688347;28;919;-57
2021/08/13 00:18:41;;;;;;;8.47;6.50;;;;;;;17.07;79.99;101976.63;688192;28;1042;-59
2021/08/13 00:19:01;;;;;;;8.70;6.80;;;;;;;17.03;80.11;101974.19;688255;28;905;-58
2021/08/13 00:19:22;;;;;;;9.38;7.03;;;;;;;17.04;80.14;101979.44;688215;28;880;-58
2021/08/13 00:19:42;;;;;;;9.10;7.23;;;;;;;17.03;79.94;101977.72;688229;28;855;-58
2021/08/13 00:20:04;;;;;;;9.60;7.20;;;;;;;16.99;79.84;101978.81;688316;28;904;-58
2021/08/13 00:20:24;;;;;;;8.18;6.63;;;;;;;16.97;80.40;101979.84;688204;28;1317;-57
2021/08/13 00:20:44;;;;;;;8.02;6.60;;;;;;;16.99;80.37;101978.81;688201;28;1047;-57
2021/08/13 00:21:05;;;;;;;8.23;6.70;;;;;;;16.93;80.47;101979.13;688374;28;864;-58
2021/08/13 00:21:28;;;;;;;7.87;6.80;;;;;;;16.84;80.63;101977.78;688139;28;821;-57
2021/08/13 00:21:52;;;;;;;8.43;6.80;;;;;;;16.81;80.61;101977.06;688136;28;1311;-57
2021/08/13 00:22:12;;;;;;;9.60;7.03;;;;;;;16.77;80.67;101986.16;688355;28;828;-58
2021/08/13 00:22:32;;;;;;;8.68;7.00;;;;;;;16.79;80.88;101981.59;688258;28;848;-58
2021/08/13 00:22:52;;;;;;;8.50;6.90;;;;;;;16.73;80.72;101979.22;687767;28;889;-58
2021/08/13 00:23:13;;;;;;;8.30;6.93;;;;;;;16.73;81.06;101979.22;688205;28;867;-58
2021/08/13 00:23:33;;;;;;;8.88;7.07;;;;;;;16.75;80.86;101980.88;688182;28;1031;-58
2021/08/13 00:23:53;;;;;;;9.60;7.40;;;;;;;16.70;80.82;101976.72;688278;28;968;-58
2021/08/13 00:24:15;;;;;;;8.10;7.00;;;;;;;16.70;81.10;101974.06;688202;28;1205;-57
2021/08/13 00:24:35;;;;;;;8.50;7.10;;;;;;;16.73;80.94;101982.75;688342;28;923;-57
2021/08/13 00:24:55;;;;;;;8.60;7.10;;;;;;;16.67;81.02;101979.53;688244;28;1001;-57
2021/08/13 00:25:16;;;;;;;8.20;6.90;;;;;;;16.65;81.21;101976.06;688289;28;829;-57
2021/08/13 00:25:37;;;;;;;7.82;7.03;;;;;;;16.63;81.29;101977.97;688183;28;976;-57
2021/08/13 00:25:57;;;;;;;8.48;7.30;;;;;;;16.63;81.47;101977.97;688328;28;988;-57
2021/08/13 00:26:18;;;;;;;8.50;7.00;;;;;;;16.60;81.32;101979.81;688195;28;813;-58
2021/08/13 00:26:38;;;;;;;8.80;7.13;;;;;;;16.63;81.53;101980.63;688210;28;1991;-58
2021/08/13 00:27:01;;;;;;;9.40;7.23;;;;;;;16.59;81.42;101978.09;688245;28;841;-57
2021/08/13 00:27:21;;;;;;;8.55;7.10;;;;;;;16.59;81.43;101972.78;683063;28;1642;-57
2021/08/13 00:27:41;;;;;;;8.40;7.13;;;;;;;16.61;81.56;101981.53;682896;29;876;-58
2021/08/13 00:28:02;;;;;;;8.70;7.10;;;;;;;16.63;81.44;101977.97;682855;29;894;-58
2021/08/13 00:28:22;;;;;;;8.53;7.17;;;;;;;16.59;81.38;101986.09;683014;29;798;-58
2021/08/13 00:28:42;;;;;;;8.90;7.17;;;;;;;16.58;81.82;101979.03;682932;29;889;-58
2021/08/13 00:29:03;;;;;;;8.73;7.00;;;;;;;16.59;81.56;101987.91;682895;29;802;-58
2021/08/13 00:29:26;;;;;;;9.23;7.23;;;;;;;16.63;81.48;101983.28;683778;28;1435;-57
2021/08/13 00:29:46;;;;;;;8.65;7.35;;;;;;;16.65;81.38;101982.25;685537;28;967;-58
2021/08/13 00:30:07;;;;;;;8.47;7.20;;;;;;;16.66;81.33;101983.13;685568;28;964;-58
2021/08/13 00:30:28;;;;;;;8.45;6.97;;;;;;;16.66;81.33;101984.00;685635;28;1230;-57
2021/08/13 00:30:50;;;;;;;8.93;7.20;;;;;;;16.64;81.24;101992.97;686913;28;1372;-57
2021/08/13 00:31:10;;;;;;;8.90;7.07;;;;;;;16.61;81.66;101989.53;688122;28;944;-57
2021/08/13 00:31:31;;;;;;;8.77;7.07;;;;;;;16.58;81.71;101992.34;688084;28;1002;-57
2021/08/13 00:31:51;;;;;;;8.38;6.90;;;;;;;16.59;81.51;101995.88;687895;28;1423;-58
2021/08/13 00:32:12;;;;;;;8.73;7.03;;;;;;;16.62;81.50;101990.41;688123;28;1033;-58
2021/08/13 00:32:32;;;;;;;9.15;7.20;;;;;;;16.64;81.38;101993.84;688153;28;851;-58
2021/08/13 00:32:52;;;;;;;8.60;7.10;;;;;;;16.63;81.28;101999.25;687682;28;887;-58
2021/08/13 00:33:13;;;;;;;10.15;7.50;;;;;;;16.58;81.75;101987.00;688273;28;831;-58
2021/08/13 00:33:33;;;;;;;9.03;7.37;;;;;;;16.57;81.75;101990.63;688270;28;1002;-58
2021/08/13 00:33:53;;;;;;;9.20;7.77;;;;;;;16.58;81.48;101997.66;688148;28;773;-58
2021/08/13 00:34:14;;;;;;;9.30;7.47;;;;;;;16.55;81.41;101995.16;688254;28;927;-58
2021/08/13 00:34:34;;;;;;;9.07;7.50;;;;;;;16.55;81.62;101996.94;688350;28;831;-58
2021/08/13 00:35:04;;;;;;;8.97;7.17;;;;;;;16.53;81.77;101991.72;688168;28;911;-57
2021/08/13 00:35:24;;;;;;;9.15;7.40;;;;;;;16.54;81.56;101990.75;688158;28;844;-58
2021/08/13 00:35:45;;;;;;;9.60;7.45;;;;;;;16.55;81.95;101992.50;682906;28;1563;-58
2021/08/13 00:36:05;;;;;;;8.93;7.30;;;;;;;16.50;81.89;101993.66;686541;28;1407;-58
2021/08/13 00:36:25;;;;;;;8.97;7.50;;;;;;;16.51;82.04;101990.91;687122;28;1518;-58
2021/08/13 00:36:45;;;;;;;9.67;7.87;;;;;;;16.52;81.93;101995.31;685480;28;1027;-58
2021/08/13 00:37:08;;;;;;;9.67;7.70;;;;;;;16.56;81.78;101986.25;685593;28;971;-58
2021/08/13 00:37:29;;;;;;;8.75;7.20;;;;;;;16.59;81.49;101994.06;685430;28;857;-58
2021/08/13 00:37:49;;;;;;;9.70;7.50;;;;;;;16.60;81.61;101987.81;685600;28;832;-58
2021/08/13 00:38:09;;;;;;;10.23;7.32;;;;;;;16.61;81.92;101992.19;685574;28;888;-58
2021/08/13 00:38:30;;;;;;;9.40;7.50;;;;;;;16.63;81.74;101991.28;685584;28;797;-59
2021/08/13 00:38:56;;;;;;;8.77;7.40;;;;;;;16.66;81.63;101988.47;685604;28;940;-58
2021/08/13 00:39:17;;;;;;;9.88;8.05;;;;;;;16.66;81.54;101988.47;685552;28;878;-60
2021/08/13 00:39:37;;;;;;;9.48;7.53;;;;;;;16.69;81.50;101985.63;685343;28;876;-58
2021/08/13 00:39:58;;;;;;;9.43;7.50;;;;;;;16.71;81.26;101991.75;685627;28;821;-58
2021/08/13 00:40:18;;;;;;;8.80;7.50;;;;;;;16.74;81.29;101996.91;685605;28;980;-59
2021/08/13 00:40:38;;;;;;;9.40;7.93;;;;;;;16.70;81.28;101990.03;685503;28;934;-59
2021/08/13 00:41:01;;;;;;;9.50;7.60;;;;;;;16.66;81.54;101984.00;685604;28;860;-59
2021/08/13 00:41:22;;;;;;;9.57;7.63;;;;;;;16.65;81.55;101998.22;685507;28;915;-59
2021/08/13 00:41:42;;;;;;;10.25;7.75;;;;;;;16.64;81.57;101990.31;685443;28;973;-58
2021/08/13 00:42:06;;;;;;;9.90;8.07;;;;;;;16.61;81.83;101991.31;685587;28;1029;-60
2021/08/13 00:42:29;;;;;;;9.13;7.68;;;;;;;16.65;81.67;101982.25;685489;28;919;-58
2021/08/13 00:42:49;;;;;;;8.90;7.40;;;;;;;16.65;81.69;101994.69;685118;28;919;-58
2021/08/13 00:43:12;;;;;;;9.63;7.73;;;;;;;16.64;81.46;101990.31;685338;28;987;-58
2021/08/13 00:43:35;;;;;;;9.45;7.78;;;;;;;16.63;81.65;101986.81;685484;28;939;-58
2021/08/13 00:43:55;;;;;;;9.52;8.00;;;;;;;16.63;81.76;101983.28;685542;28;892;-58
2021/08/13 00:44:15;;;;;;;8.55;7.25;;;;;;;16.63;81.69;101985.94;685670;28;1637;-58
2021/08/13 00:44:37;;;;;;;9.13;7.30;;;;;;;16.57;81.82;101993.28;687771;28;1379;-58
2021/08/13 00:44:57;;;;;;;10.18;8.02;;;;;;;16.54;81.93;101985.44;688306;28;871;-58
2021/08/13 00:45:17;;;;;;;11.00;8.02;;;;;;;16.56;82.10;101988.03;688022;28;964;-59
2021/08/13 00:45:37;;;;;;;10.10;7.90;;;;;;;16.57;81.91;101990.63;688129;28;987;-57
2021/08/13 00:45:58;;;;;;;8.50;7.40;;;;;;;16.58;81.93;101992.34;688213;28;872;-58
2021/08/13 00:46:18;;;;;;;9.90;8.30;;;;;;;16.59;81.62;101988.75;688157;28;877;-58
2021/08/13 00:46:38;;;;;;;9.77;8.43;;;;;;;16.60;81.48;101979.81;688186;28;1976;-58
2021/08/13 00:46:59;;;;;;;10.27;8.60;;;;;;;16.57;81.64;101990.63;685947;28;1449;-58
2021/08/13 00:47:19;;;;;;;10.30;8.20;;;;;;;16.54;81.57;101990.75;685501;28;1061;-58
2021/08/13 00:47:39;;;;;;;9.80;8.30;;;;;;;16.56;81.82;101988.03;685508;28;849;-58
2021/08/13 00:47:59;;;;;;;9.20;8.10;;;;;;;16.52;81.87;101990.00;685464;28;883;-58
2021/08/13 00:48:20;;;;;;;10.07;8.02;;;;;;;16.54;81.96;101990.75;685584;28;916;-58
2021/08/13 00:48:40;;;;;;;9.60;8.23;;;;;;;16.53;81.87;101989.03;685647;28;931;-58
2021/08/13 00:49:00;;;;;;;9.87;8.57;;;;;;;16.49;82.29;101995.47;685475;28;871;-59
2021/08/13 00:49:21;;;;;;;10.53;8.80;;;;;;;16.50;82.20;101986.53;685491;28;952;-58
2021/08/13 00:49:44;;;;;;;10.70;8.98;;;;;;;16.47;82.17;101988.47;685412;28;1101;-58
2021/08/13 00:50:05;;;;;;;10.40;8.65;;;;;;;16.51;81.90;101990.91;685444;28;858;-58
2021/08/13 00:50:28;;;;;;;10.32;8.75;;;;;;;16.52;81.90;101987.34;685541;28;849;-57
2021/08/13 00:50:49;;;;;;;10.35;8.25;;;;;;;16.54;82.14;101993.44;685468;28;888;-60
2021/08/13 00:51:09;;;;;;;10.60;8.17;;;;;;;16.58;81.96;101994.13;685526;28;1067;-58
2021/08/13 00:51:30;;;;;;;9.68;8.50;;;;;;;16.50;81.81;101989.19;685537;28;876;-59
2021/08/13 00:51:51;;;;;;;10.70;9.10;;;;;;;16.53;81.94;101986.38;685193;28;1398;-58
2021/08/13 00:52:12;;;;;;;11.02;9.30;;;;;;;16.56;81.96;101988.91;685597;28;915;-58
2021/08/13 00:52:32;;;;;;;10.32;8.93;;;;;;;16.48;82.36;101988.44;685522;28;1154;-58
2021/08/13 00:52:53;;;;;;;10.95;9.07;;;;;;;16.41;82.53;101986.97;685034;28;896;-58
2021/08/13 00:53:16;;;;;;;10.98;8.88;;;;;;;16.41;82.48;101981.66;685632;28;829;-58
2021/08/13 00:53:37;;;;;;;11.32;9.10;;;;;;;16.44;82.50;101992.16;685412;28;1455;-58
2021/08/13 00:53:57;;;;;;;11.05;8.88;;;;;;;16.48;82.59;101990.19;685357;28;1050;-58
2021/08/13 00:54:19;;;;;;;10.67;9.00;;;;;;;16.46;82.38;101992.94;685522;28;952;-58
2021/08/13 00:54:39;;;;;;;10.60;9.02;;;;;;;16.46;82.40;101990.28;685473;28;901;-58
2021/08/13 00:55:00;;;;;;;9.83;8.80;;;;;;;16.46;82.61;101990.28;685583;28;971;-58
2021/08/13 00:55:20;;;;;;;9.85;8.85;;;;;;;16.44;82.47;101994.81;685571;28;1214;-58
2021/08/13 00:55:40;;;;;;;10.87;8.80;;;;;;;16.46;82.41;101987.63;685381;28;821;-58
2021/08/13 00:56:01;;;;;;;10.48;8.57;;;;;;;16.50;82.58;101991.00;685472;28;820;-57
2021/08/13 00:56:21;;;;;;;10.67;8.60;;;;;;;16.50;82.19;101989.19;685607;28;809;-58
2021/08/13 00:56:42;;;;;;;9.98;8.80;;;;;;;16.48;82.45;101988.44;685430;28;872;-58
2021/08/13 00:57:03;;;;;;;10.83;8.80;;;;;;;16.44;82.20;101986.81;685532;28;1026;-59
2021/08/13 00:57:23;;;;;;;11.65;8.73;;;;;;;16.43;82.36;101987.78;683171;28;1769;-59
2021/08/13 00:57:43;;;;;;;10.73;8.57;;;;;;;16.46;82.56;101990.28;682644;29;1007;-58
2021/08/13 00:58:06;;;;;;;10.43;8.55;;;;;;;16.45;82.58;101983.25;683577;28;1462;-58
2021/08/13 00:58:26;;;;;;;11.35;8.95;;;;;;;16.45;82.17;101985.91;688183;28;1002;-57
2021/08/13 00:58:47;;;;;;;10.93;9.20;;;;;;;16.46;82.69;101984.97;688083;28;820;-58
2021/08/13 00:59:10;;;;;;;10.85;8.90;;;;;;;16.45;82.73;101995.66;688296;28;867;-58
2021/08/13 00:59:31;;;;;;;10.95;8.75;;;;;;;16.46;82.50;101987.63;688101;28;951;-59
2021/08/13 00:59:52;;;;;;;10.98;8.52;;;;;;;16.42;82.77;101986.06;688084;28;1097;-58
2021/08/13 01:00:15;;;;;;;10.15;8.80;;;;;;;16.38;82.85;101987.16;688241;28;856;-57
2021/08/13 01:00:39;;;;;;;10.75;9.18;;;;;;;16.37;82.81;101990.72;688171;28;900;-58
2021/08/13 01:01:02;;;;;;;11.25;9.20;;;;;;;16.38;82.88;102000.44;687435;28;1055;-59
2021/08/13 01:01:25;;;;;;;10.88;9.38;;;;;;;16.36;82.94;101987.19;688084;28;936;-59
2021/08/13 01:01:46;;;;;;;11.73;9.50;;;;;;;16.31;82.78;101988.34;687964;28;1280;-59
2021/08/13 01:02:07;;;;;;;12.25;9.48;;;;;;;16.31;83.10;101985.69;688225;28;858;-59
2021/08/13 01:02:27;;;;;;;11.55;9.40;;;;;;;16.32;82.95;101987.44;688071;28;1018;-59
2021/08/13 01:02:47;;;;;;;10.33;9.10;;;;;;;16.23;83.29;101991.38;687723;28;916;-59
2021/08/13 01:03:08;;;;;;;11.32;9.32;;;;;;;16.21;83.31;101987.06;688214;28;903;-60
2021/08/13 01:03:28;;;;;;;11.33;9.27;;;;;;;16.24;83.18;101990.47;688199;28;926;-58
2021/08/13 01:03:49;;;;;;;11.00;9.77;;;;;;;16.24;83.14;101989.56;688144;28;896;-58
2021/08/13 01:04:09;;;;;;;11.43;9.87;;;;;;;16.23;83.35;101985.19;688204;28;876;-57
2021/08/13 01:04:32;;;;;;;10.53;9.40;;;;;;;16.20;83.31;101980.88;688098;28;927;-57
2021/08/13 01:04:52;;;;;;;11.38;9.30;;;;;;;16.21;83.56;101987.06;688188;28;809;-58
2021/08/13 01:05:14;;;;;;;11.00;9.20;;;;;;;16.24;83.31;101986.91;688087;28;1289;-59
2021/08/13 01:05:34;;;;;;;11.30;9.52;;;;;;;16.27;83.49;101984.97;688305;28;899;-58
2021/08/13 01:05:54;;;;;;;11.70;9.37;;;;;;;16.30;83.13;101989.28;687239;28;1434;-58
2021/08/13 01:06:16;;;;;;;11.37;9.00;;;;;;;16.31;83.08;101988.34;685304;28;876;-58
2021/08/13 01:06:39;;;;;;;12.30;9.30;;;;;;;16.31;82.82;101993.66;687468;28;1951;-58
2021/08/13 01:07:01;;;;;;;11.88;8.82;;;;;;;16.33;82.95;101991.81;688178;28;884;-58
2021/08/13 01:07:22;;;;;;;10.85;8.90;;;;;;;16.35;83.26;101989.94;688194;28;824;-59
2021/08/13 01:07:42;;;;;;;10.47;9.37;;;;;;;16.37;82.93;101982.72;688177;28;829;-58
2021/08/13 01:08:05;;;;;;;10.32;9.05;;;;;;;16.35;82.70;101985.47;687772;28;1509;-58
2021/08/13 01:08:26;;;;;;;11.63;9.60;;;;;;;16.36;82.99;101991.66;682959;28;872;-58
2021/08/13 01:08:49;;;;;;;11.27;9.30;;;;;;;16.38;82.63;101984.47;683794;28;1620;-57
2021/08/13 01:09:12;;;;;;;10.75;9.18;;;;;;;16.37;82.79;101988.06;682626;29;1088;-58
2021/08/13 01:09:32;;;;;;;11.77;9.05;;;;;;;16.41;82.77;101989.63;682914;29;897;-58
2021/08/13 01:09:56;;;;;;;11.35;9.05;;;;;;;16.39;82.41;101991.53;682737;29;1039;-59
2021/08/13 01:10:16;;;;;;;11.43;9.20;;;;;;;16.36;82.60;101992.53;684671;28;1549;-58
2021/08/13 01:10:51;;;;;;;13.20;9.60;;;;;;;16.33;82.93;101991.81;685589;28;883;-58
2021/08/13 01:11:43;;;;;;;11.95;9.57;;;;;;;16.34;82.87;101993.53;685474;28;1019;-58
2021/08/13 01:12:16;;;;;;;11.27;9.48;;;;;;;16.35;82.69;101993.47;682762;28;679;-58
2021/08/13 01:13:14;;;;;;;12.70;9.70;;;;;;;16.32;82.58;101995.41;682879;28;869;-59
2021/08/13 01:13:44;;;;;;;11.52;10.00;;;;;;;16.26;82.80;101990.38;674740;29;845;-58
2021/08/13 01:14:24;;;;;;;11.43;9.82;;;;;;;16.28;83.08;101993.84;674595;29;848;-58
2021/08/13 01:14:48;;;;;;;12.70;9.75;;;;;;;16.31;82.96;101993.66;678768;28;1043;-58
2021/08/13 01:15:11;;;;;;;13.60;10.18;;;;;;;16.32;82.69;101998.06;682927;28;983;-58
2021/08/13 01:15:35;;;;;;;12.75;9.95;;;;;;;16.35;82.87;101998.78;682833;28;1608;-58
2021/08/13 01:15:59;;;;;;;12.02;10.20;;;;;;;16.38;82.79;101995.13;682841;28;900;-58
2021/08/13 01:16:20;;;;;;;13.45;10.10;;;;;;;16.42;82.73;101995.84;682804;29;837;-58
2021/08/13 01:16:46;;;;;;;13.23;10.37;;;;;;;16.44;82.17;101996.59;682783;29;959;-58
2021/08/13 01:17:08;;;;;;;12.90;10.27;;;;;;;16.45;82.18;101999.22;682801;28;861;-58
2021/08/13 01:17:37;;;;;;;11.85;10.00;;;;;;;16.43;82.49;101990.44;682698;29;1020;-58
2021/08/13 01:18:08;;;;;;;11.57;10.00;;;;;;;16.40;82.43;101992.38;682828;29;892;-58
2021/08/13 01:18:37;;;;;;;12.13;10.45;;;;;;;16.40;82.65;101998.56;682727;29;1027;-57
2021/08/13 01:19:09;;;;;;;11.77;10.00;;;;;;;16.39;82.25;101999.50;682786;29;853;-59
2021/08/13 01:19:41;;;;;;;12.30;10.70;;;;;;;16.35;82.75;101995.28;682729;29;944;-58
2021/08/13 01:20:11;;;;;;;12.60;9.95;;;;;;;16.34;82.41;101994.41;682683;29;949;-58
2021/08/13 01:21:01;;;;;;;12.23;9.90;;;;;;;16.38;82.68;101997.78;682668;29;907;-58
2021/08/13 01:21:30;;;;;;;13.57;10.30;;;;;;;16.39;82.35;101999.50;682598;28;1647;-59
2021/08/13 01:22:03;;;;;;;12.95;10.77;;;;;;;16.42;82.37;101996.69;682678;29;1323;-57
2021/08/13 01:22:36;;;;;;;12.80;10.32;;;;;;;16.44;82.27;101992.16;682735;29;1035;-58
2021/08/13 01:23:05;;;;;;;12.30;10.13;;;;;;;16.45;82.55;101990.34;682388;28;1032;-58
2021/08/13 01:23:31;;;;;;;13.25;10.70;;;;;;;16.47;82.39;101989.34;682772;29;831;-59
2021/08/13 01:24:15;;;;;;;13.38;10.77;;;;;;;16.42;82.58;101991.38;682765;29;1101;-58
2021/08/13 01:24:41;;;;;;;11.38;9.98;;;;;;;16.38;82.49;101990.66;682818;28;829;-58
2021/08/13 01:25:04;;;;;;;12.52;10.57;;;;;;;16.39;82.47;101994.19;682814;29;872;-58
2021/08/13 01:25:30;;;;;;;12.60;10.15;;;;;;;16.37;82.50;101993.38;683246;28;1462;-58
2021/08/13 01:25:54;;;;;;;12.90;10.25;;;;;;;16.33;82.67;101990.00;685338;28;2049;-59
2021/08/13 01:26:17;;;;;;;12.55;10.13;;;;;;;16.33;82.84;101989.16;685394;28;928;-58
2021/08/13 01:27:18;;;;;;;11.75;10.23;;;;;;;16.36;82.49;101992.53;685386;28;1948;-58
2021/08/13 01:27:41;;;;;;;12.25;10.13;;;;;;;16.41;82.76;101989.63;684978;28;1800;-59
2021/08/13 01:28:20;;;;;;;12.35;9.93;;;;;;;16.41;82.59;101994.94;685318;28;1449;-59
2021/08/13 01:29:03;;;;;;;12.57;10.55;;;;;;;16.41;82.38;101994.94;685489;28;1107;-60
2021/08/13 01:29:42;;;;;;;13.20;10.82;;;;;;;16.32;82.35;101990.09;685432;28;816;-59
2021/08/13 01:30:09;;;;;;;13.90;10.68;;;;;;;16.32;82.65;101992.75;685305;28;821;-59
2021/08/13 01:30:33;;;;;;;13.30;10.73;;;;;;;16.33;82.44;101992.66;685512;28;1104;-59
2021/08/13 01:30:53;;;;;;;12.50;10.60;;;;;;;16.30;82.62;101991.94;684929;28;1643;-59
2021/08/13 01:31:22;;;;;;;13.43;10.77;;;;;;;16.33;82.57;101991.81;685466;28;976;-59
2021/08/13 01:31:57;;;;;;;12.82;10.52;;;;;;;16.33;82.63;101992.66;685165;28;1314;-59
2021/08/13 01:32:30;;;;;;;13.13;10.65;;;;;;;16.37;82.64;101988.06;684986;28;1327;-59
2021/08/13 01:32:56;;;;;;;13.27;10.43;;;;;;;16.38;82.35;101995.97;684730;28;893;-59
2021/08/13 01:33:18;;;;;;;12.10;10.52;;;;;;;16.38;82.48;101990.66;686355;28;1408;-59
2021/08/13 01:33:41;;;;;;;13.05;10.73;;;;;;;16.42;82.46;101996.69;685309;28;968;-59
2021/08/13 01:34:05;;;;;;;12.35;10.63;;;;;;;16.42;82.52;101998.50;685238;28;987;-60
2021/08/13 01:34:30;;;;;;;12.70;10.70;;;;;;;16.41;82.38;101994.94;685399;28;1188;-59
2021/08/13 01:34:56;;;;;;;13.93;10.88;;;;;;;16.42;82.31;101996.69;685424;28;908;-59
2021/08/13 01:35:22;;;;;;;13.93;11.27;;;;;;;16.43;82.26;102002.88;685100;28;1639;-59
2021/08/13 01:35:45;;;;;;;13.75;11.07;;;;;;;16.40;82.63;101998.56;685576;28;1434;-59
2021/08/13 01:36:11;;;;;;;12.45;10.77;;;;;;;16.40;82.40;102001.22;685970;28;1417;-58
2021/08/13 01:36:33;;;;;;;13.15;11.00;;;;;;;16.33;82.38;102002.44;686864;28;1437;-59
2021/08/13 01:36:57;;;;;;;13.00;11.13;;;;;;;16.31;82.82;101997.22;688024;28;964;-59
2021/08/13 01:37:23;;;;;;;13.63;11.23;;;;;;;16.32;82.89;102006.06;688190;28;936;-59
2021/08/13 01:37:50;;;;;;;13.50;11.25;;;;;;;16.34;82.56;102010.38;688032;28;936;-58
2021/08/13 01:38:18;;;;;;;13.35;11.40;;;;;;;16.38;82.46;102000.44;687976;28;1018;-58
2021/08/13 01:38:40;;;;;;;12.93;10.80;;;;;;;16.39;82.57;102004.81;687424;28;1582;-58
2021/08/13 01:39:02;;;;;;;13.30;11.20;;;;;;;16.38;82.51;102006.63;682758;28;1036;-59
2021/08/13 01:39:24;;;;;;;13.77;11.43;;;;;;;16.34;82.69;102009.47;682449;29;1314;-58
2021/08/13 01:39:46;;;;;;;12.57;10.57;;;;;;;16.31;83.10;102009.63;682480;29;1040;-58
2021/08/13 01:40:09;;;;;;;14.88;11.65;;;;;;;16.34;82.72;102009.47;682535;29;884;-58
2021/08/13 01:40:32;;;;;;;13.63;11.40;;;;;;;16.37;82.80;102009.34;682442;29;1090;-58
2021/08/13 01:40:56;;;;;;;13.20;11.25;;;;;;;16.33;83.06;102007.75;683957;28;1369;-58
2021/08/13 01:41:18;;;;;;;12.32;10.88;;;;;;;16.33;83.01;102010.44;682646;29;1082;-58
2021/08/13 01:41:39;;;;;;;13.52;11.07;;;;;;;16.31;82.91;101998.97;682660;29;1373;-58
2021/08/13 01:42:01;;;;;;;13.05;11.05;;;;;;;16.31;83.33;102002.53;682763;28;888;-59
2021/08/13 01:42:22;;;;;;;14.32;11.48;;;;;;;16.32;83.05;102003.38;682655;28;986;-59
2021/08/13 01:42:46;;;;;;;14.57;11.25;;;;;;;16.33;83.03;101997.13;682402;29;943;-59
2021/08/13 01:43:08;;;;;;;14.25;10.95;;;;;;;16.36;82.81;102003.16;682777;29;929;-59
2021/08/13 01:43:30;;;;;;;14.25;11.02;;;;;;;16.37;82.73;101999.56;682763;28;798;-58
2021/08/13 01:43:51;;;;;;;14.93;11.02;;;;;;;16.37;82.58;102001.34;682792;28;884;-59
2021/08/13 01:44:12;;;;;;;13.30;10.98;;;;;;;16.37;82.88;101996.03;682646;28;849;-59
2021/08/13 01:44:33;;;;;;;13.48;10.95;;;;;;;16.38;82.72;102005.75;682676;28;849;-59
2021/08/13 01:44:56;;;;;;;13.07;11.10;;;;;;;16.38;82.58;101993.31;684907;28;1471;-59
2021/08/13 01:45:30;;;;;;;13.48;10.93;;;;;;;16.42;82.74;101995.84;685182;28;1039;-59
2021/08/13 01:45:51;;;;;;;14.63;11.32;;;;;;;16.40;82.70;101995.91;685374;28;1125;-58
2021/08/13 01:46:14;;;;;;;13.60;11.20;;;;;;;16.38;82.94;101997.78;685213;28;1086;-59
2021/08/13 01:46:34;;;;;;;13.70;10.80;;;;;;;16.38;82.88;101995.97;685362;28;882;-58
2021/08/13 01:46:58;;;;;;;13.20;10.83;;;;;;;16.38;82.81;101995.13;685314;28;1902;-59
2021/08/13 01:47:19;;;;;;;12.70;11.05;;;;;;;16.42;82.46;101998.50;687679;28;921;-59
2021/08/13 01:47:41;;;;;;;14.30;11.37;;;;;;;16.42;82.42;101994.03;687973;28;813;-59
2021/08/13 01:48:04;;;;;;;14.13;11.45;;;;;;;16.43;82.22;101993.09;687868;28;981;-59
2021/08/13 01:48:29;;;;;;;13.07;11.10;;;;;;;16.44;82.51;101992.16;687788;28;963;-59
2021/08/13 01:48:49;;;;;;;13.85;11.52;;;;;;;16.42;82.23;101990.53;687848;28;1031;-59
2021/08/13 01:49:13;;;;;;;12.98;11.57;;;;;;;16.40;82.53;101992.38;686630;28;947;-59